^^
Station Historical Data
Daily Summary for June 26, 2017 Units:  Metric    English   Both
« Previous Day
Next Day »
Daily Weekly Monthly Yearly Custom
  High: Low: Average:
Temperature: 22.2 °C 11.3 °C 15.8 °C
Dew Point: 2.3 °C -0.8 °C 0.9 °C
Humidity: 48% 27% 37%
Wind Speed: 13km/h 0km/h 3.4km/h
Wind Gust: 22.5km/h - -
Wind- - NNW
Pressure: 1017.2 hPa 1013.4 hPa -
Precipitation: 0 mm    
Historical Graphs
 
 
Tabular Data for June 26, 2017
Time Temperature Dew Point Pressure Wind Wind Speed Wind Gust Humidity Rainfall Rate (Hourly) solar Conditions
00:59 17.1 °C 1.5 °C 1017.2 hPa NNW 9.7 km/h 17.7 km/h 35% 0 mm 0.0 W/m2
01:04 17.2 °C 1.6 °C 1017.2 hPa NNW 6.4 km/h 19.3 km/h 35% 0 mm 0.0 W/m2
01:09 17.2 °C 1.6 °C 1017.2 hPa NNW 11.1 km/h 11.3 km/h 35% 0 mm 0.0 W/m2
01:14 17.1 °C 1.5 °C 1016.8 hPa NNW 7.9 km/h 12.9 km/h 35% 0 mm 0.0 W/m2
01:19 17.2 °C 1.6 °C 1016.8 hPa NNW 11.1 km/h 12.9 km/h 35% 0 mm 0.0 W/m2
01:24 17.2 °C 1.6 °C 1016.8 hPa NNW 9.7 km/h 14.5 km/h 35% 0 mm 0.0 W/m2
01:29 17.3 °C 1.7 °C 1016.8 hPa NNW 9.7 km/h 17.7 km/h 35% 0 mm 0.0 W/m2
01:39 17.1 °C 1.9 °C 1016.8 hPa NNW 13 km/h 17.7 km/h 36% 0 mm 0.0 W/m2
01:44 17.1 °C 1.9 °C 1016.8 hPa NNW 9.7 km/h 17.7 km/h 36% 0 mm 0.0 W/m2
01:49 17 °C 1.8 °C 1016.5 hPa NNW 7.9 km/h 12.9 km/h 36% 0 mm 0.0 W/m2
01:54 16.8 °C 1.6 °C 1016.8 hPa NNW 3.2 km/h 11.3 km/h 36% 0 mm 0.0 W/m2
02:04 16.6 °C 1.5 °C 1016.5 hPa NNW 6.4 km/h 11.3 km/h 36% 0 mm 0.0 W/m2
02:14 16.9 °C 1.7 °C 1016.5 hPa NNW 3.2 km/h 11.3 km/h 36% 0 mm 0.0 W/m2
02:19 17 °C 1.8 °C 1016.5 hPa NNW 6.4 km/h 11.3 km/h 36% 0 mm 0.0 W/m2
02:24 16.8 °C 1.6 °C 1016.5 hPa NNW 7.9 km/h 11.3 km/h 36% 0 mm 0.0 W/m2
02:29 16.7 °C 1.6 °C 1016.5 hPa NNW 1.4 km/h 9.7 km/h 36% 0 mm 0.0 W/m2
02:35 16.1 °C 1.4 °C 1016.5 hPa NNW 6.4 km/h 9.7 km/h 37% 0 mm 0.0 W/m2
02:40 16 °C 1.7 °C 1016.1 hPa NNW 9.7 km/h 12.9 km/h 38% 0 mm 0.0 W/m2
02:50 16.6 °C 1.8 °C 1016.5 hPa NNW 11.1 km/h 12.9 km/h 37% 0 mm 0.0 W/m2
02:54 16.7 °C 1.9 °C 1016.1 hPa NNW 6.4 km/h 14.5 km/h 37% 0 mm 0.0 W/m2
03:00 16.8 °C 1.6 °C 1016.5 hPa NNW 3.2 km/h 11.3 km/h 36% 0 mm 0.0 W/m2
03:05 16.8 °C 1.6 °C 1016.1 hPa NNW 1.4 km/h 11.3 km/h 36% 0 mm 0.0 W/m2
03:10 16.8 °C 1.6 °C 1016.1 hPa NNW 1.4 km/h 12.9 km/h 36% 0 mm 0.0 W/m2
03:15 16.8 °C 1.6 °C 1016.5 hPa NNW 1.4 km/h 12.9 km/h 36% 0 mm 0.0 W/m2
03:20 16.8 °C 1.6 °C 1016.5 hPa NNW 3.2 km/h 19.3 km/h 36% 0 mm 0.0 W/m2
03:25 16.7 °C 1.6 °C 1016.5 hPa NNW 7.9 km/h 12.9 km/h 36% 0 mm 0.0 W/m2
03:35 16.3 °C 1.6 °C 1016.5 hPa NNW 7.9 km/h 9.7 km/h 37% 0 mm 0.0 W/m2
03:40 15.9 °C 1.2 °C 1016.5 hPa NNW 3.2 km/h 9.7 km/h 37% 0 mm 0.0 W/m2
03:50 14.9 °C 1.1 °C 1016.5 hPa Calm   8 km/h 39% 0 mm 0.0 W/m2
03:55 14.5 °C 1.1 °C 1016.5 hPa Calm     40% 0 mm 0.0 W/m2
04:01 14.2 °C 1.1 °C 1016.5 hPa Calm     41% 0 mm 0.0 W/m2
04:06 13.8 °C 1.1 °C 1016.5 hPa Calm   1.6 km/h 42% 0 mm 0.0 W/m2
04:11 13.5 °C 0.8 °C 1016.5 hPa Calm     42% 0 mm 0.0 W/m2
04:16 13.2 °C 0.9 °C 1016.5 hPa Calm     43% 0 mm 0.0 W/m2
04:21 12.9 °C 0.9 °C 1016.5 hPa Calm     44% 0 mm 0.0 W/m2
04:27 12.8 °C 0.8 °C 1016.1 hPa Calm     44% 0 mm 0.0 W/m2
04:32 12.7 °C 1.1 °C 1016.5 hPa Calm   8 km/h 45% 0 mm 0.0 W/m2
04:37 12.6 °C 1 °C 1016.5 hPa Calm   11.3 km/h 45% 0 mm 0.0 W/m2
04:42 12.5 °C 0.9 °C 1016.5 hPa NNW 6.4 km/h 11.3 km/h 45% 0 mm 0.0 W/m2
04:47 12.6 °C 1 °C 1016.5 hPa NNW 6.4 km/h 9.7 km/h 45% 0 mm 0.0 W/m2
04:52 12.5 °C 0.9 °C 1016.5 hPa NNW 7.9 km/h 11.3 km/h 45% 0 mm 0.0 W/m2
05:02 12.3 °C 0.7 °C 1016.5 hPa NNW 3.2 km/h 9.7 km/h 45% 0 mm 0.0 W/m2
05:08 12.4 °C 0.8 °C 1016.8 hPa Calm   11.3 km/h 45% 0 mm 0.0 W/m2
05:18 12.3 °C 0.7 °C 1016.8 hPa Calm   3.2 km/h 45% 0 mm 0.0 W/m2
05:28 12.2 °C 0.9 °C 1016.8 hPa NNW 3.2 km/h 8 km/h 46% 0 mm 0.0 W/m2
05:43 12.6 °C 1 °C 1017.2 hPa Calm     45% 0 mm 0.0 W/m2
05:54 12.1 °C 0.8 °C 1017.2 hPa NNW 1.4 km/h 11.3 km/h 46% 0 mm 0.0 W/m2
05:59 11.9 °C 0.6 °C 1017.2 hPa NNW 1.4 km/h 11.3 km/h 46% 0 mm 0.0 W/m2
06:04 11.9 °C 0.6 °C 1017.2 hPa NNW 6.4 km/h 9.7 km/h 46% 0 mm 0.0 W/m2
06:14 11.5 °C 0.6 °C 1017.2 hPa Calm   8 km/h 47% 0 mm 0.0 W/m2
06:24 11.3 °C 0.7 °C 1017.2 hPa NNW 7.9 km/h 9.7 km/h 48% 0 mm 0.0 W/m2
06:29 11.6 °C 1 °C 1017.2 hPa Calm   11.3 km/h 48% 0 mm 0.0 W/m2
06:40 12.6 °C 1 °C 1017.2 hPa Calm   11.3 km/h 45% 0 mm 0.0 W/m2
06:44 12.7 °C 1.1 °C 1017.2 hPa Calm   9.7 km/h 45% 0 mm 7.0 W/m2
06:51 12.6 °C 1 °C 1017.2 hPa NNW 7.9 km/h 9.7 km/h 45% 0 mm 9.0 W/m2
06:56 12.7 °C 0.8 °C 1017.2 hPa NNW 3.2 km/h 9.7 km/h 44% 0 mm 12.0 W/m2
07:05 13.1 °C 0.8 °C 1017.2 hPa Calm   11.3 km/h 43% 0 mm 19.0 W/m2
09:30 20.3 °C 1.2 °C 1016.8 hPa NNW 1.4 km/h 14.5 km/h 28% 0 mm 410.0 W/m2
09:40 20.9 °C 1.2 °C 1016.8 hPa NNW 6.4 km/h 12.9 km/h 27% 0 mm 432.0 W/m2
09:45 21.1 °C 1.4 °C 1016.8 hPa NNW 1.4 km/h 8 km/h 27% 0 mm 438.0 W/m2
09:50 21.4 °C 1.6 °C 1016.8 hPa NNW 13 km/h 13 km/h 27% 0 mm 448.0 W/m2
10:01 21.8 °C 2 °C 1016.8 hPa NNW 9.7 km/h 22.5 km/h 27% 0 mm 475.0 W/m2
10:06 21.9 °C 2.1 °C 1016.8 hPa NNW 3.2 km/h 14.5 km/h 27% 0 mm 471.0 W/m2
10:11 22.2 °C 2.3 °C 1016.8 hPa NNW 11.1 km/h 22.5 km/h 27% 0 mm 508.0 W/m2
21:37 17.1 °C -0.6 °C 1014.1 hPa Calm     30% 0 mm 0.0 W/m2
21:42 17.1 °C -0.2 °C 1014.1 hPa Calm     31% 0 mm 0.0 W/m2
21:47 17.2 °C -0.5 °C 1014.1 hPa Calm     30% 0 mm 0.0 W/m2
21:52 17.2 °C -0.5 °C 1014.1 hPa Calm     30% 0 mm 0.0 W/m2
21:57 17.1 °C -0.2 °C 1014.1 hPa Calm     31% 0 mm 0.0 W/m2
22:02 16.9 °C -0.3 °C 1014.1 hPa Calm     31% 0 mm 0.0 W/m2
22:13 16.8 °C -0.4 °C 1014.1 hPa Calm     31% 0 mm 0.0 W/m2
22:29 16.5 °C -0.7 °C 1014.1 hPa Calm     31% 0 mm 0.0 W/m2
22:34 16.4 °C -0.8 °C 1014.1 hPa Calm     31% 0 mm 0.0 W/m2
22:39 16.4 °C -0.3 °C 1014.1 hPa Calm     32% 0 mm 0.0 W/m2
22:45 16.5 °C -0.7 °C 1014.1 hPa Calm     31% 0 mm 0.0 W/m2
22:50 16.6 °C -0.6 °C 1014.1 hPa Calm     31% 0 mm 0.0 W/m2
23:00 16.9 °C -0.3 °C 1014.1 hPa Calm     31% 0 mm 0.0 W/m2
23:05 16.9 °C -0.3 °C 1014.1 hPa Calm     31% 0 mm 0.0 W/m2
23:11 16.8 °C -0.4 °C 1014.1 hPa Calm     31% 0 mm 0.0 W/m2
23:16 16.9 °C -0.3 °C 1014.1 hPa Calm     31% 0 mm 0.0 W/m2
23:21 17.1 °C -0.2 °C 1014.1 hPa Calm     31% 0 mm 0.0 W/m2
23:26 17.2 °C -0.1 °C 1014.1 hPa Calm     31% 0 mm 0.0 W/m2
23:36 17.4 °C -0.4 °C 1013.8 hPa Calm     30% 0 mm 0.0 W/m2
23:52 17.2 °C -0.1 °C 1013.8 hPa Calm     31% 0 mm 0.0 W/m2
23:57 17.3 °C 0 °C 1013.4 hPa Calm     31% 0 mm 0.0 W/m2
Canyon Roadhouse, Fishriver Canyon, Namibia
Compliments of Weather Underground - 2 mb